Weather Outlook 14th November 2019 (6 pm)

Tonight, unstable conditions will be affecting the islands as a shearline pushes from the northwest over the Southern Windward Islands. An increase in cloud cover and showers are likely as the night progress into Friday morning across Saint Vincent and the Grenadines. A dry mid-level is likely to suppress shower activity during Friday.

Model guidance is indicating that by Saturday morning, further instability is likely to result in scattered showers with a slight chance of isolated thunderstorms across Saint Vincent and the Grenadines. Sunday is forecast to be mostly fair.

A light to gentle (10km/h- 20km/h) north easterly wind flow, becoming moderate (25km/h) on occasions will persist across Saint Vincent and the Grenadines. Sea conditions will be slight to moderate in open water (1.0m -1.5m) becoming generally slight (0.5m-1.2m) on Sunday. There will be no significant haze intrusion within this forecast period.

 

 

 

Aviation WX

[Source: ADDS]
METAR
TVSA 082300Z 04007KT 9999 FEW016 SCT028 26/23 Q1015 TEMPO SHRA =
TVSA 082300Z 0900/0924 07005KT 9999 SCT016 SCT036 TEMPO 0900/0908 5000 SHRA BKN014 FEW015CB BKN032
TAF
TVSA 082300Z 0900/0924 07005KT 9999 SCT016 SCT036 TEMPO 0900/0908 5000 SHRA BKN014 FEW015CB BKN032 =
SR / SS: 09:51 / 22:28 UTC (Sunrise Sunset 2020-08-08)